createdAt,value
2019-04-07T00:00:06.502Z,59.40
2019-04-07T00:00:38.127Z,59.40
2019-04-07T00:01:10.272Z,59.40
2019-04-07T00:01:42.095Z,59.40
2019-04-07T00:02:14.226Z,59.80
2019-04-07T00:02:45.573Z,59.40
2019-04-07T00:03:17.349Z,59.40
2019-04-07T00:03:49.475Z,59.40
2019-04-07T00:04:21.500Z,59.30
2019-04-07T00:04:53.468Z,60.10
2019-04-07T00:05:25.570Z,59.40
2019-04-07T00:05:57.484Z,59.40
2019-04-07T00:06:29.460Z,59.30
2019-04-07T00:07:01.319Z,59.40
2019-04-07T00:07:33.216Z,60.00
2019-04-07T00:08:04.589Z,59.30
2019-04-07T00:08:36.600Z,59.30
2019-04-07T00:09:07.936Z,59.30
2019-04-07T00:09:39.991Z,59.30
2019-04-07T00:10:11.388Z,59.30
2019-04-07T00:10:42.646Z,59.40
2019-04-07T00:11:13.937Z,59.30
2019-04-07T00:11:45.252Z,59.30
2019-04-07T00:12:16.487Z,59.30
2019-04-07T00:12:48.214Z,59.30
2019-04-07T00:13:19.586Z,59.30
2019-04-07T00:13:50.769Z,59.40
2019-04-07T00:14:21.960Z,59.30
2019-04-07T00:14:54.045Z,59.30
2019-04-07T00:15:25.912Z,59.40
2019-04-07T00:15:57.539Z,59.30
2019-04-07T00:16:29.705Z,59.40
2019-04-07T00:17:01.063Z,59.30
2019-04-07T00:17:32.319Z,59.30
2019-04-07T00:18:03.558Z,59.30
2019-04-07T00:18:34.730Z,59.30
2019-04-07T00:19:06.574Z,59.30
2019-04-07T00:19:37.912Z,59.30
2019-04-07T00:20:09.753Z,59.30
2019-04-07T00:20:42.032Z,59.30
2019-04-07T00:21:13.688Z,59.30
2019-04-07T00:21:45.549Z,59.30
2019-04-07T00:22:17.113Z,59.30
2019-04-07T00:22:48.799Z,59.30
2019-04-07T00:23:20.140Z,59.30
2019-04-07T00:23:51.336Z,59.30
2019-04-07T00:24:22.524Z,59.30
2019-04-07T00:24:54.013Z,59.30
2019-04-07T00:25:25.216Z,59.30
2019-04-07T00:25:56.719Z,59.30
2019-04-07T00:26:28.040Z,59.40
2019-04-07T00:26:59.774Z,59.30
2019-04-07T00:27:31.917Z,59.30
2019-04-07T00:28:03.266Z,59.40
2019-04-07T00:28:34.481Z,59.30
2019-04-07T00:29:06.031Z,59.30
2019-04-07T00:29:37.752Z,59.30
2019-04-07T00:30:09.433Z,59.30
2019-04-07T00:30:40.631Z,59.30
2019-04-07T00:31:12.232Z,59.30
2019-04-07T00:31:43.829Z,59.40
2019-04-07T00:32:15.010Z,59.40
2019-04-07T00:32:46.733Z,59.40
2019-04-07T00:33:18.339Z,59.40
2019-04-07T00:33:49.566Z,59.40
2019-04-07T00:34:20.762Z,59.40
2019-04-07T00:34:51.943Z,59.50
2019-04-07T00:35:29.110Z,59.40
2019-04-07T00:35:56.042Z,59.40
2019-04-07T00:36:27.842Z,59.40
2019-04-07T00:36:59.107Z,59.40
2019-04-07T00:37:31.079Z,59.40
2019-04-07T00:38:02.345Z,59.30
2019-04-07T00:38:33.578Z,59.30
2019-04-07T00:39:04.853Z,59.30
2019-04-07T00:39:36.191Z,59.30
2019-04-07T00:40:07.396Z,59.30
2019-04-07T00:40:39.145Z,59.30
2019-04-07T00:41:10.981Z,59.30
2019-04-07T00:41:42.888Z,59.20
2019-04-07T00:42:14.726Z,59.20
2019-04-07T00:42:46.148Z,59.30
2019-04-07T00:43:17.616Z,59.20
2019-04-07T00:43:48.833Z,59.20
2019-04-07T00:44:20.126Z,59.30
2019-04-07T00:44:51.353Z,59.20
2019-04-07T00:45:22.557Z,59.20
2019-04-07T00:45:53.750Z,59.30
2019-04-07T00:46:24.970Z,59.20
2019-04-07T00:46:56.233Z,59.20
2019-04-07T00:47:27.421Z,59.20
2019-04-07T00:47:59.314Z,59.20
2019-04-07T00:48:31.118Z,59.20
2019-04-07T00:49:02.911Z,59.20
2019-04-07T00:49:34.759Z,59.10
2019-04-07T00:50:06.516Z,59.10
2019-04-07T00:50:38.345Z,59.20
2019-04-07T00:51:10.223Z,59.20
2019-04-07T00:51:42.075Z,59.20
2019-04-07T00:52:13.982Z,59.20
2019-04-07T00:52:45.610Z,59.20
2019-04-07T00:53:16.800Z,59.20
2019-04-07T00:53:48.279Z,59.20
2019-04-07T00:54:19.502Z,59.20
2019-04-07T00:54:51.330Z,59.20
2019-04-07T00:55:23.109Z,59.20
2019-04-07T00:55:55.013Z,59.20
2019-04-07T00:56:26.924Z,59.30
2019-04-07T00:56:59.321Z,59.20
2019-04-07T00:57:30.706Z,59.30
2019-04-07T00:58:02.434Z,59.30
2019-04-07T00:58:34.347Z,59.30
2019-04-07T00:59:05.573Z,59.30
2019-04-07T00:59:36.784Z,59.90
2019-04-07T01:00:08.003Z,59.20
2019-04-07T01:00:39.925Z,59.20
2019-04-07T01:01:11.685Z,59.20
2019-04-07T01:01:43.072Z,59.20
2019-04-07T01:02:14.259Z,59.20
2019-04-07T01:02:45.441Z,58.60
2019-04-07T01:03:17.345Z,59.10
2019-04-07T01:03:49.110Z,59.50
2019-04-07T01:04:20.325Z,59.10
2019-04-07T01:04:51.844Z,59.10
2019-04-07T01:05:34.743Z,59.00
2019-04-07T01:05:56.389Z,59.00
2019-04-07T01:06:27.574Z,59.10
2019-04-07T01:06:59.161Z,59.00
2019-04-07T01:07:30.876Z,59.00
2019-04-07T01:08:02.229Z,59.00
2019-04-07T01:08:33.528Z,59.10
2019-04-07T01:09:05.532Z,59.00
2019-04-07T01:09:36.694Z,59.00
2019-04-07T01:10:07.891Z,58.90
2019-04-07T01:10:39.385Z,59.00
2019-04-07T01:11:11.281Z,59.00
2019-04-07T01:11:43.048Z,59.00
2019-04-07T01:12:14.916Z,59.00
2019-04-07T01:12:46.231Z,59.00
2019-04-07T01:13:17.473Z,59.00
2019-04-07T01:13:48.675Z,59.00
2019-04-07T01:14:20.293Z,59.10
2019-04-07T01:14:52.162Z,59.00
2019-04-07T01:15:24.053Z,59.00
2019-04-07T01:15:56.010Z,59.20
2019-04-07T01:16:27.408Z,59.10
2019-04-07T01:16:59.448Z,59.00
2019-04-07T01:17:31.130Z,59.00
2019-04-07T01:18:02.955Z,59.00
2019-04-07T01:18:35.444Z,59.00
2019-04-07T01:19:07.340Z,59.00
2019-04-07T01:19:38.636Z,59.00
2019-04-07T01:20:10.577Z,59.00
2019-04-07T01:20:41.905Z,59.00
2019-04-07T01:21:13.707Z,59.00
2019-04-07T01:21:45.726Z,59.00
2019-04-07T01:22:17.749Z,59.10
2019-04-07T01:22:49.494Z,59.10
2019-04-07T01:23:21.300Z,59.10
2019-04-07T01:23:52.530Z,59.00
2019-04-07T01:24:24.130Z,59.60
2019-04-07T01:24:55.963Z,59.00
2019-04-07T01:25:27.282Z,59.00
2019-04-07T01:25:58.579Z,59.00
2019-04-07T01:26:29.877Z,59.00
2019-04-07T01:27:01.072Z,59.00
2019-04-07T01:27:32.282Z,59.00
2019-04-07T01:28:03.474Z,58.90
2019-04-07T01:28:35.346Z,58.90
2019-04-07T01:29:06.642Z,58.90
2019-04-07T01:29:38.722Z,58.90
2019-04-07T01:30:10.614Z,59.00
2019-04-07T01:30:41.848Z,59.00
2019-04-07T01:31:13.356Z,58.90
2019-04-07T01:31:45.142Z,58.90
2019-04-07T01:32:16.456Z,59.00
2019-04-07T01:32:47.654Z,59.00
2019-04-07T01:33:18.844Z,58.90
2019-04-07T01:33:50.502Z,58.90
2019-04-07T01:34:21.775Z,59.00
2019-04-07T01:34:53.160Z,59.00
2019-04-07T01:35:24.354Z,58.90
2019-04-07T01:35:56.350Z,58.90
2019-04-07T01:36:27.981Z,58.90
2019-04-07T01:36:59.847Z,59.60
2019-04-07T01:37:31.628Z,58.90
2019-04-07T01:38:02.987Z,59.60
2019-04-07T01:38:34.170Z,59.00
2019-04-07T01:39:05.381Z,58.90
2019-04-07T01:39:37.200Z,58.90
2019-04-07T01:40:09.092Z,58.90
2019-04-07T01:40:41.049Z,58.90
2019-04-07T01:41:12.528Z,59.00
2019-04-07T01:41:43.698Z,59.00
2019-04-07T01:42:14.902Z,58.90
2019-04-07T01:42:46.079Z,58.90
2019-04-07T01:43:17.488Z,59.00
2019-04-07T01:43:49.391Z,59.00
2019-04-07T01:44:21.010Z,59.00
2019-04-07T01:44:52.319Z,59.10
2019-04-07T01:45:23.755Z,59.10
2019-04-07T01:45:55.098Z,59.00
2019-04-07T01:46:27.256Z,59.00
2019-04-07T01:46:58.600Z,59.00
2019-04-07T01:47:29.795Z,59.00
2019-04-07T01:48:01.103Z,59.00
2019-04-07T01:48:32.344Z,59.00
2019-04-07T01:49:03.738Z,58.90
2019-04-07T01:49:35.061Z,58.90
2019-04-07T01:50:06.548Z,58.90
2019-04-07T01:50:38.483Z,58.90
2019-04-07T01:51:10.297Z,58.80
2019-04-07T01:51:42.217Z,58.80
2019-04-07T01:52:14.002Z,58.80
2019-04-07T01:52:45.546Z,58.90
2019-04-07T01:53:16.753Z,58.80
2019-04-07T01:53:47.940Z,58.80
2019-04-07T01:54:19.158Z,58.80
2019-04-07T01:54:50.398Z,58.80
2019-04-07T01:55:21.606Z,58.80
2019-04-07T01:55:52.794Z,58.80
2019-04-07T01:56:23.983Z,58.80
2019-04-07T01:56:55.271Z,58.90
2019-04-07T01:57:26.810Z,58.80
2019-04-07T01:57:58.156Z,58.80
2019-04-07T01:58:29.503Z,58.80
2019-04-07T01:59:00.696Z,58.80
2019-04-07T01:59:31.880Z,58.80
2019-04-07T02:00:03.085Z,58.90
2019-04-07T02:00:34.372Z,58.80
2019-04-07T02:01:05.559Z,58.80
2019-04-07T02:01:37.167Z,58.80
2019-04-07T02:02:08.498Z,58.80
2019-04-07T02:02:40.109Z,58.80
2019-04-07T02:03:11.337Z,58.90
2019-04-07T02:03:43.027Z,58.80
2019-04-07T02:04:14.392Z,58.80
2019-04-07T02:04:45.580Z,58.60
2019-04-07T02:05:17.114Z,58.90
2019-04-07T02:05:58.598Z,58.90
2019-04-07T02:06:22.100Z,58.90
2019-04-07T02:06:53.397Z,58.90
2019-04-07T02:07:24.637Z,58.90
2019-04-07T02:07:56.541Z,58.80
2019-04-07T02:08:27.921Z,58.80
2019-04-07T02:08:59.106Z,58.80
2019-04-07T02:09:30.286Z,58.70
2019-04-07T02:10:02.536Z,58.70
2019-04-07T02:10:34.090Z,58.80
2019-04-07T02:11:06.040Z,58.70
2019-04-07T02:11:37.587Z,58.70
2019-04-07T02:12:09.458Z,58.70
2019-04-07T02:12:41.210Z,58.60
2019-04-07T02:13:13.114Z,58.60
2019-04-07T02:13:45.094Z,58.60
2019-04-07T02:14:16.431Z,58.60
2019-04-07T02:14:47.633Z,58.60
2019-04-07T02:15:18.935Z,58.60
2019-04-07T02:15:50.523Z,58.60
2019-04-07T02:16:21.876Z,58.60
2019-04-07T02:16:53.169Z,58.60
2019-04-07T02:17:25.144Z,58.60
2019-04-07T02:17:56.990Z,58.60
2019-04-07T02:18:28.837Z,58.60
2019-04-07T02:19:00.815Z,58.60
2019-04-07T02:19:32.775Z,58.60
2019-04-07T02:20:05.133Z,58.60
2019-04-07T02:20:36.544Z,58.60
2019-04-07T02:21:08.448Z,58.60
2019-04-07T02:21:40.344Z,58.60
2019-04-07T02:22:11.675Z,58.60
2019-04-07T02:22:42.859Z,58.30
2019-04-07T02:23:14.048Z,58.60
2019-04-07T02:23:45.627Z,58.60
2019-04-07T02:24:16.843Z,58.60
2019-04-07T02:24:48.045Z,58.60
2019-04-07T02:25:19.940Z,58.60
2019-04-07T02:25:51.563Z,58.60
2019-04-07T02:26:22.744Z,58.60
2019-04-07T02:26:54.356Z,58.60
2019-04-07T02:27:25.644Z,58.60
2019-04-07T02:27:56.917Z,58.60
2019-04-07T02:28:28.126Z,58.60
2019-04-07T02:28:59.345Z,58.60
2019-04-07T02:29:30.569Z,58.60
2019-04-07T02:30:01.840Z,58.60
2019-04-07T02:30:33.243Z,58.60
2019-04-07T02:31:04.527Z,58.60
2019-04-07T02:31:35.977Z,58.60
2019-04-07T02:32:08.052Z,58.60
2019-04-07T02:32:39.446Z,58.60
2019-04-07T02:33:10.850Z,58.60
2019-04-07T02:33:42.463Z,58.60
2019-04-07T02:34:13.730Z,58.60
2019-04-07T02:34:45.546Z,58.60
2019-04-07T02:35:17.038Z,58.60
2019-04-07T02:35:48.905Z,58.60
2019-04-07T02:36:26.174Z,58.60
2019-04-07T02:36:53.914Z,58.60
2019-04-07T02:37:25.204Z,58.60
2019-04-07T02:37:56.981Z,58.60
2019-04-07T02:38:29.370Z,58.60
2019-04-07T02:39:00.821Z,58.70
2019-04-07T02:39:32.726Z,58.70
2019-04-07T02:40:05.416Z,58.60
2019-04-07T02:40:37.052Z,58.60
2019-04-07T02:41:09.052Z,58.60
2019-04-07T02:41:40.645Z,58.60
2019-04-07T02:42:12.940Z,58.60
2019-04-07T02:42:44.289Z,58.60
2019-04-07T02:43:15.938Z,58.60
2019-04-07T02:43:47.378Z,58.60
2019-04-07T02:44:18.548Z,58.00
2019-04-07T02:44:50.756Z,58.60
2019-04-07T02:45:22.177Z,58.60
2019-04-07T02:45:53.620Z,58.60
2019-04-07T02:46:25.647Z,58.60
2019-04-07T02:46:56.964Z,58.60
2019-04-07T02:47:28.158Z,58.60
2019-04-07T02:47:59.774Z,58.70
2019-04-07T02:48:32.215Z,58.70
2019-04-07T02:49:04.137Z,58.70
2019-04-07T02:49:35.616Z,58.60
2019-04-07T02:50:07.232Z,58.60
2019-04-07T02:50:38.712Z,58.60
2019-04-07T02:51:10.044Z,58.60
2019-04-07T02:51:42.064Z,58.60
2019-04-07T02:52:14.479Z,58.60
2019-04-07T02:52:45.888Z,58.50
2019-04-07T02:53:17.075Z,58.50
2019-04-07T02:53:48.602Z,58.40
2019-04-07T02:54:20.578Z,58.40
2019-04-07T02:54:52.898Z,58.40
2019-04-07T02:55:24.251Z,58.40
2019-04-07T02:55:55.517Z,58.40
2019-04-07T02:56:26.928Z,59.10
2019-04-07T02:56:58.408Z,58.40
2019-04-07T02:57:29.705Z,58.40
2019-04-07T02:58:01.561Z,58.40
2019-04-07T02:58:32.912Z,58.40
2019-04-07T02:59:04.748Z,58.40
2019-04-07T02:59:40.142Z,58.40
2019-04-07T03:00:09.849Z,58.40
2019-04-07T03:00:41.396Z,58.40
2019-04-07T03:01:13.624Z,58.40
2019-04-07T03:01:45.421Z,58.40
2019-04-07T03:02:17.724Z,58.40
2019-04-07T03:02:49.707Z,58.40
2019-04-07T03:03:21.382Z,58.40
2019-04-07T03:03:52.649Z,58.50
2019-04-07T03:04:24.725Z,58.50
2019-04-07T03:04:56.741Z,58.40
2019-04-07T03:05:28.170Z,58.40
2019-04-07T03:05:59.400Z,58.40
2019-04-07T03:06:39.181Z,58.40
2019-04-07T03:07:04.663Z,58.40
2019-04-07T03:07:36.075Z,58.40
2019-04-07T03:08:07.802Z,58.40
2019-04-07T03:08:40.627Z,58.40
2019-04-07T03:09:12.872Z,58.40
2019-04-07T03:09:44.299Z,58.40
2019-04-07T03:10:15.919Z,58.50
2019-04-07T03:10:47.394Z,58.40
2019-04-07T03:11:19.971Z,58.50
2019-04-07T03:11:52.310Z,58.40
2019-04-07T03:12:23.766Z,58.40
2019-04-07T03:12:55.097Z,58.50
2019-04-07T03:13:26.297Z,58.40
2019-04-07T03:13:58.530Z,58.40
2019-04-07T03:14:30.198Z,58.50
2019-04-07T03:15:02.807Z,58.50
2019-04-07T03:15:34.404Z,58.50
2019-04-07T03:16:05.742Z,58.50
2019-04-07T03:16:37.494Z,58.40
2019-04-07T03:17:08.818Z,58.50
2019-04-07T03:17:40.222Z,58.40
2019-04-07T03:18:12.601Z,58.40
2019-04-07T03:18:44.392Z,58.30
2019-04-07T03:19:15.750Z,58.30
2019-04-07T03:19:46.948Z,58.30
2019-04-07T03:20:18.735Z,58.20
2019-04-07T03:20:50.152Z,58.20
2019-04-07T03:21:22.430Z,58.30
2019-04-07T03:21:54.268Z,58.20
2019-04-07T03:22:25.864Z,58.20
2019-04-07T03:22:57.073Z,58.20
2019-04-07T03:23:28.600Z,58.20
2019-04-07T03:24:00.019Z,58.20
2019-04-07T03:24:31.518Z,58.20
2019-04-07T03:25:03.685Z,58.20
2019-04-07T03:25:35.610Z,58.20
2019-04-07T03:26:07.942Z,58.30
2019-04-07T03:26:40.538Z,58.20
2019-04-07T03:27:12.021Z,58.20
2019-04-07T03:27:43.230Z,58.10
2019-04-07T03:28:14.461Z,58.10
2019-04-07T03:28:45.675Z,58.80
2019-04-07T03:29:16.870Z,58.10
2019-04-07T03:29:49.307Z,58.10
2019-04-07T03:30:22.996Z,58.10
2019-04-07T03:30:54.874Z,58.10
2019-04-07T03:31:27.497Z,58.10
2019-04-07T03:32:00.445Z,58.10
2019-04-07T03:32:33.753Z,58.20
2019-04-07T03:33:07.866Z,58.10
2019-04-07T03:33:40.610Z,58.20
2019-04-07T03:34:13.402Z,58.20
2019-04-07T03:34:44.852Z,58.10
2019-04-07T03:35:19.806Z,58.20
2019-04-07T03:35:52.836Z,58.20
2019-04-07T03:36:24.315Z,58.10
2019-04-07T03:37:20.283Z,58.20
2019-04-07T03:37:36.148Z,58.10
2019-04-07T03:38:01.930Z,58.20
2019-04-07T03:38:33.586Z,58.10
2019-04-07T03:39:04.851Z,58.10
2019-04-07T03:39:36.031Z,58.10
2019-04-07T03:40:08.310Z,58.20
2019-04-07T03:40:39.593Z,58.20
2019-04-07T03:41:11.806Z,58.10
2019-04-07T03:41:43.995Z,58.20
2019-04-07T03:42:15.767Z,58.20
2019-04-07T03:42:47.408Z,58.10
2019-04-07T03:43:19.397Z,58.10
2019-04-07T03:43:51.019Z,58.20
2019-04-07T03:44:22.608Z,58.10
2019-04-07T03:44:54.014Z,58.20
2019-04-07T03:45:25.202Z,58.10
2019-04-07T03:45:57.225Z,58.10
2019-04-07T03:46:28.593Z,58.10
2019-04-07T03:46:59.958Z,58.10
2019-04-07T03:47:32.068Z,58.10
2019-04-07T03:48:04.232Z,58.10
2019-04-07T03:48:35.614Z,58.10
2019-04-07T03:49:07.277Z,58.10
2019-04-07T03:49:39.422Z,58.20
2019-04-07T03:50:10.769Z,58.20
2019-04-07T03:50:41.985Z,58.20
2019-04-07T03:51:13.436Z,58.20
2019-04-07T03:51:44.649Z,58.20
2019-04-07T03:52:15.845Z,58.20
2019-04-07T03:52:47.022Z,58.10
2019-04-07T03:53:18.548Z,58.20
2019-04-07T03:53:50.419Z,58.10
2019-04-07T03:54:22.860Z,58.20
2019-04-07T03:54:54.845Z,58.80
2019-04-07T03:55:26.242Z,58.00
2019-04-07T03:55:57.809Z,58.10
2019-04-07T03:56:29.035Z,58.00
2019-04-07T03:57:00.455Z,58.00
2019-04-07T03:57:32.430Z,58.00
2019-04-07T03:58:03.960Z,58.70
2019-04-07T03:58:37.455Z,58.00
2019-04-07T03:59:08.135Z,58.00
2019-04-07T03:59:40.531Z,58.00
2019-04-07T04:00:12.580Z,58.00
2019-04-07T04:00:43.805Z,58.00
2019-04-07T04:01:15.725Z,58.00
2019-04-07T04:01:47.850Z,58.00
2019-04-07T04:02:19.680Z,58.00
2019-04-07T04:02:50.943Z,58.00
2019-04-07T04:03:22.786Z,58.00
2019-04-07T04:03:54.124Z,58.00
2019-04-07T04:04:25.306Z,58.00
2019-04-07T04:04:56.484Z,58.00
2019-04-07T04:05:28.038Z,58.00
2019-04-07T04:05:59.220Z,58.10
2019-04-07T04:06:30.431Z,58.00
2019-04-07T04:07:16.411Z,58.10
2019-04-07T04:07:36.976Z,58.00
2019-04-07T04:08:07.496Z,58.00
2019-04-07T04:08:39.044Z,58.00
2019-04-07T04:09:11.249Z,58.00
2019-04-07T04:09:42.993Z,58.00
2019-04-07T04:10:14.319Z,58.00
2019-04-07T04:10:45.493Z,58.00
2019-04-07T04:11:16.681Z,58.00
2019-04-07T04:11:47.862Z,58.00
2019-04-07T04:12:19.042Z,58.00
2019-04-07T04:12:51.159Z,58.00
2019-04-07T04:13:23.091Z,58.00
2019-04-07T04:13:54.841Z,58.00
2019-04-07T04:14:26.201Z,58.00
2019-04-07T04:14:57.467Z,58.00
2019-04-07T04:15:28.717Z,57.90
2019-04-07T04:16:00.893Z,58.50
2019-04-07T04:16:32.594Z,58.00
2019-04-07T04:17:04.260Z,57.90
2019-04-07T04:17:35.649Z,57.90
2019-04-07T04:18:06.878Z,57.90
2019-04-07T04:18:38.139Z,58.20
2019-04-07T04:19:09.404Z,58.00
2019-04-07T04:19:40.782Z,58.00
2019-04-07T04:20:12.901Z,58.00
2019-04-07T04:20:44.465Z,58.00
2019-04-07T04:21:16.406Z,58.00
2019-04-07T04:21:47.948Z,58.00
2019-04-07T04:22:19.231Z,58.00
2019-04-07T04:22:50.705Z,57.90
2019-04-07T04:23:22.040Z,57.90
2019-04-07T04:23:53.212Z,57.90
2019-04-07T04:24:24.405Z,57.90
2019-04-07T04:24:55.639Z,57.90
2019-04-07T04:25:27.459Z,57.80
2019-04-07T04:25:59.417Z,57.80
2019-04-07T04:26:31.755Z,57.80
2019-04-07T04:27:03.124Z,57.80
2019-04-07T04:27:35.228Z,57.80
2019-04-07T04:28:07.826Z,57.80
2019-04-07T04:28:39.110Z,57.80
2019-04-07T04:29:10.434Z,57.80
2019-04-07T04:29:41.647Z,57.80
2019-04-07T04:30:13.465Z,57.90
2019-04-07T04:30:44.804Z,57.80
2019-04-07T04:31:16.349Z,57.80
2019-04-07T04:31:47.576Z,57.80
2019-04-07T04:32:18.983Z,57.80
2019-04-07T04:32:50.257Z,57.80
2019-04-07T04:33:21.451Z,57.70
2019-04-07T04:33:53.406Z,57.80
2019-04-07T04:34:27.656Z,57.80
2019-04-07T04:34:59.365Z,57.80
2019-04-07T04:35:30.798Z,57.80
2019-04-07T04:36:02.779Z,57.70
2019-04-07T04:36:34.170Z,57.70
2019-04-07T04:37:05.658Z,57.70
2019-04-07T04:37:45.068Z,57.80
2019-04-07T04:38:10.314Z,57.70
2019-04-07T04:38:41.643Z,57.80
2019-04-07T04:39:14.131Z,57.80
2019-04-07T04:39:46.317Z,57.80
2019-04-07T04:40:17.791Z,57.80
2019-04-07T04:40:49.403Z,57.80
2019-04-07T04:41:21.040Z,57.80
2019-04-07T04:41:52.658Z,57.80
2019-04-07T04:42:24.965Z,57.80
2019-04-07T04:42:56.895Z,57.80
2019-04-07T04:43:28.323Z,57.90
2019-04-07T04:44:00.402Z,57.80
2019-04-07T04:44:31.837Z,57.80
2019-04-07T04:45:04.063Z,57.80
2019-04-07T04:45:36.265Z,57.80
2019-04-07T04:46:10.654Z,57.80
2019-04-07T04:46:41.162Z,57.80
2019-04-07T04:47:12.605Z,57.80
2019-04-07T04:47:44.733Z,57.80
2019-04-07T04:48:17.252Z,57.90
2019-04-07T04:48:49.419Z,57.80
2019-04-07T04:49:21.059Z,57.80
2019-04-07T04:49:52.802Z,57.80
2019-04-07T04:50:24.152Z,57.80
2019-04-07T04:50:56.028Z,57.80
2019-04-07T04:51:28.088Z,57.80
2019-04-07T04:52:00.325Z,57.80
2019-04-07T04:52:31.857Z,57.80
2019-04-07T04:53:04.024Z,57.80
2019-04-07T04:53:35.390Z,57.70
2019-04-07T04:54:07.085Z,57.80
2019-04-07T04:54:38.891Z,57.80
2019-04-07T04:55:10.092Z,57.80
2019-04-07T04:55:41.294Z,57.80
2019-04-07T04:56:12.610Z,57.80
2019-04-07T04:56:44.795Z,57.80
2019-04-07T04:57:16.156Z,57.80
2019-04-07T04:57:47.970Z,57.80
2019-04-07T04:58:19.459Z,57.80
2019-04-07T04:58:50.807Z,57.80
2019-04-07T04:59:22.056Z,57.70
2019-04-07T04:59:54.026Z,57.70
2019-04-07T05:00:25.408Z,57.70
2019-04-07T05:00:57.757Z,57.70
2019-04-07T05:01:29.102Z,57.70
2019-04-07T05:02:00.962Z,57.60
2019-04-07T05:02:33.676Z,57.70
2019-04-07T05:03:04.931Z,57.70
2019-04-07T05:03:38.240Z,57.60
2019-04-07T05:04:09.197Z,57.60
2019-04-07T05:04:41.939Z,57.70
2019-04-07T05:05:13.357Z,57.60
2019-04-07T05:05:44.592Z,58.20
2019-04-07T05:06:16.056Z,57.50
2019-04-07T05:06:47.826Z,57.60
2019-04-07T05:07:19.131Z,57.60
2019-04-07T05:07:59.127Z,57.60
2019-04-07T05:08:23.706Z,57.60
2019-04-07T05:08:55.048Z,57.60
2019-04-07T05:09:39.168Z,57.60
2019-04-07T05:10:00.007Z,58.10
2019-04-07T05:10:31.323Z,57.50
2019-04-07T05:11:03.075Z,57.60
2019-04-07T05:11:34.468Z,57.60
2019-04-07T05:12:06.113Z,57.60
2019-04-07T05:12:38.161Z,57.60
2019-04-07T05:13:09.806Z,57.60
2019-04-07T05:13:41.210Z,57.50
2019-04-07T05:14:12.488Z,57.60
2019-04-07T05:14:44.237Z,57.60
2019-04-07T05:15:16.252Z,57.80
2019-04-07T05:15:47.850Z,57.60
2019-04-07T05:16:19.775Z,57.60
2019-04-07T05:16:51.520Z,57.60
2019-04-07T05:17:23.184Z,57.60
2019-04-07T05:17:54.857Z,57.60
2019-04-07T05:18:26.798Z,57.70
2019-04-07T05:18:58.501Z,57.70
2019-04-07T05:19:30.121Z,57.60
2019-04-07T05:20:01.337Z,57.60
2019-04-07T05:20:33.139Z,57.70
2019-04-07T05:21:05.210Z,57.70
2019-04-07T05:21:36.617Z,57.70
2019-04-07T05:22:07.905Z,57.70
2019-04-07T05:22:39.126Z,57.70
2019-04-07T05:23:10.315Z,57.70
2019-04-07T05:23:41.577Z,57.70
2019-04-07T05:24:13.141Z,57.70
2019-04-07T05:24:44.331Z,57.70
2019-04-07T05:25:15.620Z,57.70
2019-04-07T05:25:46.912Z,57.70
2019-04-07T05:26:18.095Z,57.60
2019-04-07T05:26:49.279Z,58.20
2019-04-07T05:27:20.831Z,57.60
2019-04-07T05:27:52.041Z,58.20
2019-04-07T05:28:23.218Z,58.10
2019-04-07T05:28:55.036Z,57.50
2019-04-07T05:29:26.360Z,57.40
2019-04-07T05:29:57.553Z,57.40
2019-04-07T05:30:29.020Z,57.40
2019-04-07T05:31:00.567Z,57.40
2019-04-07T05:31:31.866Z,57.40
2019-04-07T05:32:03.309Z,57.40
2019-04-07T05:32:34.518Z,57.40
2019-04-07T05:33:05.707Z,57.40
2019-04-07T05:33:36.902Z,57.40
2019-04-07T05:34:08.130Z,57.40
2019-04-07T05:34:40.252Z,57.50
2019-04-07T05:35:12.071Z,57.40
2019-04-07T05:35:44.162Z,57.40
2019-04-07T05:36:15.855Z,57.50
2019-04-07T05:36:47.788Z,57.40
2019-04-07T05:37:19.169Z,57.50
2019-04-07T05:37:59.972Z,57.40
2019-04-07T05:38:23.405Z,57.40
2019-04-07T05:38:55.352Z,57.40
2019-04-07T05:39:27.195Z,57.40
2019-04-07T05:39:59.152Z,57.40
2019-04-07T05:40:31.068Z,57.50
2019-04-07T05:41:02.993Z,57.40
2019-04-07T05:41:34.294Z,57.40
2019-04-07T05:42:05.482Z,57.40
2019-04-07T05:42:36.692Z,57.50
2019-04-07T05:43:07.955Z,57.40
2019-04-07T05:43:39.195Z,57.50
2019-04-07T05:44:10.377Z,57.40
2019-04-07T05:44:42.186Z,57.40
2019-04-07T05:45:13.456Z,57.40
2019-04-07T05:45:45.510Z,57.40
2019-04-07T05:46:17.665Z,57.40
2019-04-07T05:46:49.817Z,58.10
2019-04-07T05:47:21.296Z,57.50
2019-04-07T05:47:53.397Z,57.40
2019-04-07T05:48:24.937Z,57.40
2019-04-07T05:48:56.665Z,57.40
2019-04-07T05:49:28.229Z,57.40
2019-04-07T05:50:02.839Z,57.40
2019-04-07T05:50:33.406Z,57.40
2019-04-07T05:51:05.513Z,57.50
2019-04-07T05:51:37.054Z,57.50
2019-04-07T05:52:08.540Z,57.40
2019-04-07T05:52:40.875Z,57.40
2019-04-07T05:53:14.701Z,57.50
2019-04-07T05:53:47.451Z,57.50
2019-04-07T05:54:19.751Z,57.50
2019-04-07T05:54:51.596Z,57.50
2019-04-07T05:55:24.398Z,57.40
2019-04-07T05:55:56.288Z,57.50
2019-04-07T05:56:28.424Z,57.40
2019-04-07T05:57:01.534Z,57.50
2019-04-07T05:57:34.902Z,57.50
2019-04-07T05:58:07.304Z,57.50
2019-04-07T05:58:41.113Z,57.50
2019-04-07T05:59:13.177Z,57.50
2019-04-07T05:59:45.095Z,57.60
2019-04-07T06:00:16.987Z,57.50
2019-04-07T06:00:49.399Z,57.60
2019-04-07T06:01:23.388Z,57.60
2019-04-07T06:01:59.364Z,57.70
2019-04-07T06:02:27.403Z,57.60
2019-04-07T06:03:04.241Z,57.60
2019-04-07T06:03:33.186Z,57.60
2019-04-07T06:04:04.368Z,57.70
2019-04-07T06:04:36.088Z,57.60
2019-04-07T06:05:07.341Z,57.60
2019-04-07T06:05:38.618Z,57.60
2019-04-07T06:06:10.453Z,57.50
2019-04-07T06:06:42.104Z,57.50
2019-04-07T06:07:13.791Z,57.50
2019-04-07T06:07:45.825Z,57.50
2019-04-07T06:08:26.830Z,57.40
2019-04-07T06:08:50.646Z,57.40
2019-04-07T06:09:21.927Z,57.40
2019-04-07T06:09:53.505Z,57.40
2019-04-07T06:10:27.729Z,57.30
2019-04-07T06:11:01.287Z,57.30
2019-04-07T06:11:33.036Z,57.30
2019-04-07T06:12:09.064Z,57.30
2019-04-07T06:12:39.348Z,57.30
2019-04-07T06:13:12.937Z,57.40
2019-04-07T06:13:44.636Z,57.30
2019-04-07T06:14:16.727Z,57.30
2019-04-07T06:14:48.460Z,57.30
2019-04-07T06:15:22.201Z,57.30
2019-04-07T06:15:53.230Z,57.40
2019-04-07T06:16:24.678Z,57.40
2019-04-07T06:16:56.298Z,57.30
2019-04-07T06:17:27.761Z,57.40
2019-04-07T06:18:01.483Z,57.40
2019-04-07T06:18:34.198Z,57.40
2019-04-07T06:19:08.088Z,57.40
2019-04-07T06:19:41.146Z,57.40
2019-04-07T06:20:14.252Z,57.40
2019-04-07T06:20:45.794Z,57.40
2019-04-07T06:21:17.558Z,57.40
2019-04-07T06:21:49.127Z,57.40
2019-04-07T06:22:22.036Z,57.40
2019-04-07T06:22:54.670Z,57.40
2019-04-07T06:23:29.508Z,57.40
2019-04-07T06:24:00.605Z,57.50
2019-04-07T06:24:33.995Z,57.40
2019-04-07T06:25:05.856Z,57.40
2019-04-07T06:25:41.767Z,57.40
2019-04-07T06:26:11.830Z,58.00
2019-04-07T06:26:47.633Z,57.50
2019-04-07T06:27:17.852Z,57.40
2019-04-07T06:27:50.019Z,57.50
2019-04-07T06:28:21.651Z,57.50
2019-04-07T06:28:57.876Z,57.70
2019-04-07T06:29:26.494Z,57.60
2019-04-07T06:30:00.013Z,57.50
2019-04-07T06:30:32.357Z,57.60
2019-04-07T06:31:03.648Z,57.70
2019-04-07T06:31:34.833Z,57.50
2019-04-07T06:32:09.254Z,57.50
2019-04-07T06:32:39.769Z,57.50
2019-04-07T06:33:11.250Z,57.60
2019-04-07T06:33:42.443Z,57.50
2019-04-07T06:34:13.732Z,57.50
2019-04-07T06:34:46.172Z,57.50
2019-04-07T06:35:18.272Z,57.40
2019-04-07T06:35:49.991Z,57.40
2019-04-07T06:36:21.272Z,57.50
2019-04-07T06:36:55.244Z,57.80
2019-04-07T06:37:29.171Z,57.40
2019-04-07T06:38:04.006Z,57.40
2019-04-07T06:38:34.888Z,57.50
2019-04-07T06:39:04.695Z,57.40
2019-04-07T06:39:36.155Z,57.60
2019-04-07T06:40:07.805Z,57.50
2019-04-07T06:40:39.287Z,57.50
2019-04-07T06:41:10.570Z,57.50
2019-04-07T06:41:42.190Z,57.50
2019-04-07T06:42:14.277Z,57.50
2019-04-07T06:42:45.837Z,57.50
2019-04-07T06:43:18.646Z,57.50
2019-04-07T06:43:50.523Z,57.60
2019-04-07T06:44:23.265Z,57.60
2019-04-07T06:44:55.413Z,57.60
2019-04-07T06:45:26.714Z,57.60
2019-04-07T06:45:58.477Z,57.60
2019-04-07T06:46:30.542Z,57.60
2019-04-07T06:47:03.871Z,57.70
2019-04-07T06:47:35.448Z,57.60
2019-04-07T06:48:08.265Z,57.60
2019-04-07T06:48:40.500Z,57.60